This is the latest recevied weather packets stored in our database for station/object KC9Q. If no packets are shown the sender has not sent any weather packets the latest 10 day(s).
| Time | Temp. | Humidity | Pressure | Rain* | Wind** | Luminosity | Snow |
|---|---|---|---|---|---|---|---|
| 1777836049 | 20.56° C | 35% | 1016.8 hPa | 0 mm | - | 891 W/m² | - |
| 1777835745 | 20.56° C | 36% | 1017 hPa | 0 mm | - | 902 W/m² | - |
| 1777835442 | 20.56° C | 35% | 1017.1 hPa | 0 mm | - | 901 W/m² | - |
| 1777835139 | 20° C | 36% | 1017.3 hPa | 0 mm | - | 908 W/m² | - |
| 1777834837 | 20.56° C | 35% | 1017.4 hPa | 0 mm | - | 925 W/m² | - |
| 1777834533 | 20.56° C | 36% | 1017.6 hPa | 0 mm | - | 934 W/m² | - |
| 1777834232 | 20° C | 38% | 1017.6 hPa | 0 mm | - | 941 W/m² | - |
| 1777833929 | 20° C | 36% | 1017.8 hPa | 0 mm | - | 952 W/m² | - |
| 1777833626 | 20° C | 37% | 1017.8 hPa | 0 mm | - | 955 W/m² | - |
| 1777833322 | 20.56° C | 36% | 1017.8 hPa | 0 mm | - | 957 W/m² | - |
| 1777833019 | 20° C | 38% | 1018 hPa | 0 mm | - | 958 W/m² | - |
| 1777832718 | 20° C | 39% | 1017.9 hPa | 0 mm | - | 967 W/m² | - |
| 1777832415 | 20° C | 38% | 1018.3 hPa | 0 mm | - | 969 W/m² | - |
| 1777832112 | 19.44° C | 42% | 1018.4 hPa | 0 mm | - | 976 W/m² | - |
| 1777831808 | 19.44° C | 40% | 1018.5 hPa | 0 mm | - | 972 W/m² | - |
| 1777831506 | 19.44° C | 38% | 1018.6 hPa | 0 mm | - | 977 W/m² | - |
| 1777831203 | 18.89° C | 43% | 1018.6 hPa | 0 mm | - | 983 W/m² | - |
| 1777830901 | 18.89° C | 40% | 1018.6 hPa | 0 mm | - | 979 W/m² | - |
| 1777830596 | 19.44° C | 42% | 1018.7 hPa | 0 mm | - | 980 W/m² | - |
| 1777830295 | 18.89° C | 43% | 1019 hPa | 0 mm | - | 981 W/m² | - |
| 1777829990 | 18.89° C | 40% | 1019.2 hPa | 0 mm | - | 971 W/m² | - |
| 1777829686 | 18.89° C | 41% | 1019.4 hPa | 0 mm | - | 986 W/m² | - |
| 1777829383 | 18.33° C | 44% | 1019.4 hPa | 0 mm | - | 981 W/m² | - |
| 1777829080 | 18.33° C | 41% | 1019.4 hPa | 0 mm | - | 973 W/m² | - |
| 1777828777 | 18.89° C | 40% | 1019.7 hPa | 0 mm | - | 978 W/m² | - |
* Rain latest hour (hover to see other rain measurements)
** Current wind speed in m/s (hover to see current wind gust speed)